sensor_id;sensor_type;location;lat;lon;timestamp;P1;durP1;ratioP1;P2;durP2;ratioP2
26080;SDS011;13991;51.174;4.438;2023-02-26T00:01:14;15.03;;;3.13;;
26080;SDS011;13991;51.174;4.438;2023-02-26T00:03:41;15.33;;;3.07;;
26080;SDS011;13991;51.174;4.438;2023-02-26T00:06:07;25.00;;;3.27;;
26080;SDS011;13991;51.174;4.438;2023-02-26T00:08:33;17.57;;;3.97;;
26080;SDS011;13991;51.174;4.438;2023-02-26T00:11:00;19.10;;;4.03;;
26080;SDS011;13991;51.174;4.438;2023-02-26T00:13:26;13.63;;;3.63;;
26080;SDS011;13991;51.174;4.438;2023-02-26T00:15:57;27.80;;;3.60;;
26080;SDS011;13991;51.174;4.438;2023-02-26T00:18:24;18.67;;;3.47;;
26080;SDS011;13991;51.174;4.438;2023-02-26T00:20:50;18.87;;;3.00;;
26080;SDS011;13991;51.174;4.438;2023-02-26T00:23:16;24.35;;;4.45;;
26080;SDS011;13991;51.174;4.438;2023-02-26T00:25:42;17.33;;;2.87;;
26080;SDS011;13991;51.174;4.438;2023-02-26T00:28:09;20.73;;;3.03;;
26080;SDS011;13991;51.174;4.438;2023-02-26T00:30:35;21.00;;;3.33;;
26080;SDS011;13991;51.174;4.438;2023-02-26T00:33:01;13.77;;;2.63;;
26080;SDS011;13991;51.174;4.438;2023-02-26T00:35:28;21.63;;;3.20;;
26080;SDS011;13991;51.174;4.438;2023-02-26T00:38:01;21.90;;;4.00;;
26080;SDS011;13991;51.174;4.438;2023-02-26T00:43:05;22.57;;;2.53;;
26080;SDS011;13991;51.174;4.438;2023-02-26T00:45:33;14.80;;;3.33;;
26080;SDS011;13991;51.174;4.438;2023-02-26T00:48:12;18.77;;;2.80;;
26080;SDS011;13991;51.174;4.438;2023-02-26T00:56:35;20.27;;;2.30;;
26080;SDS011;13991;51.174;4.438;2023-02-26T00:59:01;16.70;;;3.10;;
26080;SDS011;13991;51.174;4.438;2023-02-26T01:01:27;20.33;;;2.63;;
26080;SDS011;13991;51.174;4.438;2023-02-26T01:03:53;23.90;;;3.80;;
26080;SDS011;13991;51.174;4.438;2023-02-26T01:06:19;15.33;;;2.60;;
26080;SDS011;13991;51.174;4.438;2023-02-26T01:11:29;15.23;;;3.27;;
26080;SDS011;13991;51.174;4.438;2023-02-26T01:13:55;23.83;;;2.80;;
26080;SDS011;13991;51.174;4.438;2023-02-26T01:16:23;16.10;;;2.83;;
26080;SDS011;13991;51.174;4.438;2023-02-26T01:18:55;22.23;;;3.13;;
26080;SDS011;13991;51.174;4.438;2023-02-26T01:21:33;10.17;;;2.73;;
26080;SDS011;13991;51.174;4.438;2023-02-26T01:24:04;13.13;;;2.60;;
26080;SDS011;13991;51.174;4.438;2023-02-26T01:26:33;18.63;;;2.67;;
26080;SDS011;13991;51.174;4.438;2023-02-26T01:28:58;19.33;;;3.10;;
26080;SDS011;13991;51.174;4.438;2023-02-26T01:31:33;19.33;;;3.50;;
26080;SDS011;13991;51.174;4.438;2023-02-26T01:42:51;19.97;;;3.17;;
26080;SDS011;13991;51.174;4.438;2023-02-26T01:45:34;17.93;;;2.80;;
26080;SDS011;13991;51.174;4.438;2023-02-26T01:48:37;22.30;;;3.23;;
26080;SDS011;13991;51.174;4.438;2023-02-26T01:51:12;17.77;;;3.00;;
26080;SDS011;13991;51.174;4.438;2023-02-26T01:53:37;16.27;;;2.63;;
26080;SDS011;13991;51.174;4.438;2023-02-26T01:56:05;14.33;;;2.83;;
26080;SDS011;13991;51.174;4.438;2023-02-26T01:58:37;12.17;;;2.67;;
26080;SDS011;13991;51.174;4.438;2023-02-26T02:01:04;14.37;;;2.57;;
26080;SDS011;13991;51.174;4.438;2023-02-26T02:03:33;11.03;;;2.47;;
26080;SDS011;13991;51.174;4.438;2023-02-26T02:06:06;18.60;;;2.27;;
26080;SDS011;13991;51.174;4.438;2023-02-26T02:08:46;12.50;;;2.07;;
26080;SDS011;13991;51.174;4.438;2023-02-26T02:11:12;16.97;;;2.40;;
26080;SDS011;13991;51.174;4.438;2023-02-26T02:13:53;22.37;;;2.93;;
26080;SDS011;13991;51.174;4.438;2023-02-26T02:25:13;14.80;;;2.27;;
26080;SDS011;13991;51.174;4.438;2023-02-26T02:27:54;6.80;;;2.40;;
26080;SDS011;13991;51.174;4.438;2023-02-26T02:33:33;12.13;;;2.40;;
26080;SDS011;13991;51.174;4.438;2023-02-26T02:36:19;12.90;;;1.93;;
26080;SDS011;13991;51.174;4.438;2023-02-26T02:39:41;10.17;;;2.70;;
26080;SDS011;13991;51.174;4.438;2023-02-26T02:42:00;21.70;;;2.10;;
26080;SDS011;13991;51.174;4.438;2023-02-26T02:44:31;20.83;;;2.90;;
26080;SDS011;13991;51.174;4.438;2023-02-26T02:47:01;15.57;;;2.03;;
26080;SDS011;13991;51.174;4.438;2023-02-26T02:49:34;15.13;;;2.70;;
26080;SDS011;13991;51.174;4.438;2023-02-26T02:52:13;16.50;;;2.50;;
26080;SDS011;13991;51.174;4.438;2023-02-26T02:54:55;10.00;;;2.10;;
26080;SDS011;13991;51.174;4.438;2023-02-26T02:57:34;14.40;;;2.87;;
26080;SDS011;13991;51.174;4.438;2023-02-26T03:00:06;13.03;;;2.40;;
26080;SDS011;13991;51.174;4.438;2023-02-26T03:05:23;13.70;;;2.70;;
26080;SDS011;13991;51.174;4.438;2023-02-26T03:07:55;11.47;;;2.00;;
26080;SDS011;13991;51.174;4.438;2023-02-26T03:10:27;13.63;;;2.03;;
26080;SDS011;13991;51.174;4.438;2023-02-26T03:12:52;10.30;;;2.27;;
26080;SDS011;13991;51.174;4.438;2023-02-26T03:15:20;11.77;;;2.37;;
26080;SDS011;13991;51.174;4.438;2023-02-26T03:20:41;7.47;;;1.80;;
26080;SDS011;13991;51.174;4.438;2023-02-26T03:23:32;15.87;;;2.07;;
26080;SDS011;13991;51.174;4.438;2023-02-26T03:28:49;13.80;;;2.90;;
26080;SDS011;13991;51.174;4.438;2023-02-26T03:31:30;11.20;;;1.97;;
26080;SDS011;13991;51.174;4.438;2023-02-26T03:39:53;9.70;;;1.93;;
26080;SDS011;13991;51.174;4.438;2023-02-26T03:44:55;14.90;;;2.73;;
26080;SDS011;13991;51.174;4.438;2023-02-26T03:47:21;7.30;;;1.63;;
26080;SDS011;13991;51.174;4.438;2023-02-26T03:49:49;11.83;;;1.57;;
26080;SDS011;13991;51.174;4.438;2023-02-26T03:52:34;10.10;;;1.63;;
26080;SDS011;13991;51.174;4.438;2023-02-26T03:55:16;6.73;;;1.63;;
26080;SDS011;13991;51.174;4.438;2023-02-26T03:57:45;10.57;;;1.33;;
26080;SDS011;13991;51.174;4.438;2023-02-26T04:00:11;10.63;;;1.77;;
26080;SDS011;13991;51.174;4.438;2023-02-26T04:02:46;7.10;;;1.90;;
26080;SDS011;13991;51.174;4.438;2023-02-26T04:05:24;23.17;;;2.10;;
26080;SDS011;13991;51.174;4.438;2023-02-26T04:07:52;8.93;;;1.27;;
26080;SDS011;13991;51.174;4.438;2023-02-26T04:10:20;8.30;;;1.20;;
26080;SDS011;13991;51.174;4.438;2023-02-26T04:12:51;17.90;;;1.43;;
26080;SDS011;13991;51.174;4.438;2023-02-26T04:15:16;9.93;;;1.67;;
26080;SDS011;13991;51.174;4.438;2023-02-26T04:17:42;14.40;;;1.67;;
26080;SDS011;13991;51.174;4.438;2023-02-26T04:20:08;13.47;;;2.00;;
26080;SDS011;13991;51.174;4.438;2023-02-26T04:22:35;12.57;;;1.60;;
26080;SDS011;13991;51.174;4.438;2023-02-26T04:25:01;18.03;;;2.17;;
26080;SDS011;13991;51.174;4.438;2023-02-26T04:27:26;15.97;;;1.47;;
26080;SDS011;13991;51.174;4.438;2023-02-26T04:29:52;8.10;;;1.60;;
26080;SDS011;13991;51.174;4.438;2023-02-26T04:32:18;5.60;;;1.40;;
26080;SDS011;13991;51.174;4.438;2023-02-26T04:34:43;10.10;;;1.67;;
26080;SDS011;13991;51.174;4.438;2023-02-26T04:37:09;10.43;;;1.37;;
26080;SDS011;13991;51.174;4.438;2023-02-26T04:39:35;7.33;;;1.63;;
26080;SDS011;13991;51.174;4.438;2023-02-26T04:42:01;10.47;;;1.67;;
26080;SDS011;13991;51.174;4.438;2023-02-26T04:44:28;6.57;;;1.43;;
26080;SDS011;13991;51.174;4.438;2023-02-26T04:46:55;8.90;;;1.33;;
26080;SDS011;13991;51.174;4.438;2023-02-26T04:49:21;7.83;;;1.80;;
26080;SDS011;13991;51.174;4.438;2023-02-26T04:51:46;11.80;;;1.67;;
26080;SDS011;13991;51.174;4.438;2023-02-26T04:54:12;10.10;;;1.73;;
26080;SDS011;13991;51.174;4.438;2023-02-26T04:56:38;11.07;;;1.67;;
26080;SDS011;13991;51.174;4.438;2023-02-26T04:59:03;8.53;;;1.67;;
26080;SDS011;13991;51.174;4.438;2023-02-26T05:01:30;16.70;;;1.90;;
26080;SDS011;13991;51.174;4.438;2023-02-26T05:03:55;6.67;;;1.17;;
26080;SDS011;13991;51.174;4.438;2023-02-26T05:06:21;6.30;;;1.90;;
26080;SDS011;13991;51.174;4.438;2023-02-26T05:08:47;9.80;;;1.53;;
26080;SDS011;13991;51.174;4.438;2023-02-26T05:11:12;4.00;;;0.93;;
26080;SDS011;13991;51.174;4.438;2023-02-26T05:13:38;8.43;;;1.63;;
26080;SDS011;13991;51.174;4.438;2023-02-26T05:16:04;12.73;;;1.97;;
26080;SDS011;13991;51.174;4.438;2023-02-26T05:18:30;18.07;;;1.77;;
26080;SDS011;13991;51.174;4.438;2023-02-26T05:20:56;18.37;;;1.40;;
26080;SDS011;13991;51.174;4.438;2023-02-26T05:23:22;5.30;;;1.23;;
26080;SDS011;13991;51.174;4.438;2023-02-26T05:25:48;19.20;;;1.87;;
26080;SDS011;13991;51.174;4.438;2023-02-26T05:28:14;7.97;;;1.10;;
26080;SDS011;13991;51.174;4.438;2023-02-26T05:30:40;11.47;;;1.70;;
26080;SDS011;13991;51.174;4.438;2023-02-26T05:33:06;13.70;;;1.57;;
26080;SDS011;13991;51.174;4.438;2023-02-26T05:35:32;9.50;;;1.80;;
26080;SDS011;13991;51.174;4.438;2023-02-26T05:37:57;9.43;;;1.43;;
26080;SDS011;13991;51.174;4.438;2023-02-26T05:40:23;12.63;;;0.80;;
26080;SDS011;13991;51.174;4.438;2023-02-26T05:42:49;5.10;;;1.10;;
26080;SDS011;13991;51.174;4.438;2023-02-26T05:45:16;10.33;;;1.30;;
26080;SDS011;13991;51.174;4.438;2023-02-26T05:47:43;13.47;;;1.03;;
26080;SDS011;13991;51.174;4.438;2023-02-26T05:50:09;10.93;;;1.80;;
26080;SDS011;13991;51.174;4.438;2023-02-26T05:52:35;11.13;;;1.60;;
26080;SDS011;13991;51.174;4.438;2023-02-26T05:55:01;4.47;;;1.10;;
26080;SDS011;13991;51.174;4.438;2023-02-26T05:57:27;11.13;;;1.80;;
26080;SDS011;13991;51.174;4.438;2023-02-26T05:59:53;8.30;;;1.07;;
26080;SDS011;13991;51.174;4.438;2023-02-26T06:02:18;12.70;;;1.53;;
26080;SDS011;13991;51.174;4.438;2023-02-26T06:04:44;13.80;;;1.87;;
26080;SDS011;13991;51.174;4.438;2023-02-26T06:07:10;8.87;;;1.33;;
26080;SDS011;13991;51.174;4.438;2023-02-26T06:09:35;14.87;;;1.37;;
26080;SDS011;13991;51.174;4.438;2023-02-26T06:12:02;10.77;;;1.20;;
26080;SDS011;13991;51.174;4.438;2023-02-26T06:14:28;8.10;;;1.63;;
26080;SDS011;13991;51.174;4.438;2023-02-26T06:16:54;10.03;;;1.13;;
26080;SDS011;13991;51.174;4.438;2023-02-26T06:19:19;7.23;;;1.10;;
26080;SDS011;13991;51.174;4.438;2023-02-26T06:21:45;3.70;;;1.00;;
26080;SDS011;13991;51.174;4.438;2023-02-26T06:24:11;9.23;;;1.73;;
26080;SDS011;13991;51.174;4.438;2023-02-26T06:26:37;13.73;;;2.40;;
26080;SDS011;13991;51.174;4.438;2023-02-26T06:29:03;8.30;;;1.23;;
26080;SDS011;13991;51.174;4.438;2023-02-26T06:31:29;11.63;;;1.07;;
26080;SDS011;13991;51.174;4.438;2023-02-26T06:33:54;4.37;;;1.07;;
26080;SDS011;13991;51.174;4.438;2023-02-26T06:36:20;4.90;;;0.90;;
26080;SDS011;13991;51.174;4.438;2023-02-26T06:38:46;10.37;;;1.20;;
26080;SDS011;13991;51.174;4.438;2023-02-26T06:41:12;6.53;;;0.87;;
26080;SDS011;13991;51.174;4.438;2023-02-26T06:43:38;5.80;;;1.07;;
26080;SDS011;13991;51.174;4.438;2023-02-26T06:46:04;8.43;;;1.23;;
26080;SDS011;13991;51.174;4.438;2023-02-26T06:48:30;15.23;;;1.63;;
26080;SDS011;13991;51.174;4.438;2023-02-26T06:50:56;8.50;;;1.30;;
26080;SDS011;13991;51.174;4.438;2023-02-26T06:53:22;8.17;;;1.00;;
26080;SDS011;13991;51.174;4.438;2023-02-26T06:55:49;3.30;;;0.90;;
26080;SDS011;13991;51.174;4.438;2023-02-26T06:58:16;8.90;;;1.30;;
26080;SDS011;13991;51.174;4.438;2023-02-26T07:00:42;3.03;;;0.90;;
26080;SDS011;13991;51.174;4.438;2023-02-26T07:03:12;6.67;;;1.00;;
26080;SDS011;13991;51.174;4.438;2023-02-26T07:05:39;5.70;;;1.47;;
26080;SDS011;13991;51.174;4.438;2023-02-26T07:08:05;11.07;;;1.23;;
26080;SDS011;13991;51.174;4.438;2023-02-26T07:10:31;9.03;;;1.00;;
26080;SDS011;13991;51.174;4.438;2023-02-26T07:12:57;11.73;;;1.53;;
26080;SDS011;13991;51.174;4.438;2023-02-26T07:15:23;5.83;;;1.13;;
26080;SDS011;13991;51.174;4.438;2023-02-26T07:17:49;8.93;;;1.43;;
26080;SDS011;13991;51.174;4.438;2023-02-26T07:20:14;10.87;;;1.03;;
26080;SDS011;13991;51.174;4.438;2023-02-26T07:22:42;4.17;;;1.07;;
26080;SDS011;13991;51.174;4.438;2023-02-26T07:25:08;10.07;;;0.90;;
26080;SDS011;13991;51.174;4.438;2023-02-26T07:27:34;12.50;;;1.37;;
26080;SDS011;13991;51.174;4.438;2023-02-26T07:30:00;5.77;;;0.93;;
26080;SDS011;13991;51.174;4.438;2023-02-26T07:32:27;7.67;;;1.30;;
26080;SDS011;13991;51.174;4.438;2023-02-26T07:34:53;8.87;;;1.40;;
26080;SDS011;13991;51.174;4.438;2023-02-26T07:37:19;14.53;;;0.97;;
26080;SDS011;13991;51.174;4.438;2023-02-26T07:39:44;11.43;;;1.00;;
26080;SDS011;13991;51.174;4.438;2023-02-26T07:42:10;9.17;;;1.07;;
26080;SDS011;13991;51.174;4.438;2023-02-26T07:44:36;10.00;;;1.07;;
26080;SDS011;13991;51.174;4.438;2023-02-26T07:47:02;10.67;;;1.20;;
26080;SDS011;13991;51.174;4.438;2023-02-26T07:49:28;9.67;;;1.27;;
26080;SDS011;13991;51.174;4.438;2023-02-26T07:51:53;17.47;;;1.17;;
26080;SDS011;13991;51.174;4.438;2023-02-26T07:54:19;3.90;;;1.07;;
26080;SDS011;13991;51.174;4.438;2023-02-26T07:56:45;15.93;;;1.63;;
26080;SDS011;13991;51.174;4.438;2023-02-26T07:59:10;8.33;;;1.63;;
26080;SDS011;13991;51.174;4.438;2023-02-26T08:01:36;8.03;;;0.80;;
26080;SDS011;13991;51.174;4.438;2023-02-26T08:04:02;6.90;;;1.60;;
26080;SDS011;13991;51.174;4.438;2023-02-26T08:06:28;9.77;;;1.23;;
26080;SDS011;13991;51.174;4.438;2023-02-26T08:08:54;16.13;;;2.20;;
26080;SDS011;13991;51.174;4.438;2023-02-26T08:11:20;7.83;;;0.90;;
26080;SDS011;13991;51.174;4.438;2023-02-26T08:13:46;16.40;;;1.67;;
26080;SDS011;13991;51.174;4.438;2023-02-26T08:16:11;8.50;;;1.07;;
26080;SDS011;13991;51.174;4.438;2023-02-26T08:18:37;16.23;;;0.80;;
26080;SDS011;13991;51.174;4.438;2023-02-26T08:21:03;10.70;;;1.10;;
26080;SDS011;13991;51.174;4.438;2023-02-26T08:23:29;5.27;;;1.00;;
26080;SDS011;13991;51.174;4.438;2023-02-26T08:26:00;5.00;;;0.83;;
26080;SDS011;13991;51.174;4.438;2023-02-26T08:28:33;7.40;;;0.87;;
26080;SDS011;13991;51.174;4.438;2023-02-26T08:30:59;5.73;;;1.17;;
26080;SDS011;13991;51.174;4.438;2023-02-26T08:33:26;8.50;;;1.00;;
26080;SDS011;13991;51.174;4.438;2023-02-26T08:35:52;9.67;;;1.10;;
26080;SDS011;13991;51.174;4.438;2023-02-26T08:38:19;7.00;;;1.00;;
26080;SDS011;13991;51.174;4.438;2023-02-26T08:40:47;7.73;;;0.90;;
26080;SDS011;13991;51.174;4.438;2023-02-26T08:43:17;13.60;;;1.43;;
26080;SDS011;13991;51.174;4.438;2023-02-26T08:45:43;11.50;;;0.83;;
26080;SDS011;13991;51.174;4.438;2023-02-26T08:48:10;6.07;;;0.93;;
26080;SDS011;13991;51.174;4.438;2023-02-26T08:50:35;6.77;;;1.20;;
26080;SDS011;13991;51.174;4.438;2023-02-26T08:53:02;11.07;;;0.97;;
26080;SDS011;13991;51.174;4.438;2023-02-26T08:55:28;8.43;;;0.80;;
26080;SDS011;13991;51.174;4.438;2023-02-26T08:57:54;6.17;;;1.00;;
26080;SDS011;13991;51.174;4.438;2023-02-26T09:00:19;11.50;;;1.10;;
26080;SDS011;13991;51.174;4.438;2023-02-26T09:02:45;6.40;;;1.10;;
26080;SDS011;13991;51.174;4.438;2023-02-26T09:05:11;11.50;;;1.00;;
26080;SDS011;13991;51.174;4.438;2023-02-26T09:07:39;9.30;;;1.00;;
26080;SDS011;13991;51.174;4.438;2023-02-26T09:10:05;5.97;;;0.90;;
26080;SDS011;13991;51.174;4.438;2023-02-26T09:12:32;23.17;;;1.47;;
26080;SDS011;13991;51.174;4.438;2023-02-26T09:15:00;2.53;;;0.60;;
26080;SDS011;13991;51.174;4.438;2023-02-26T09:17:25;4.27;;;1.17;;
26080;SDS011;13991;51.174;4.438;2023-02-26T09:19:51;9.63;;;0.90;;
26080;SDS011;13991;51.174;4.438;2023-02-26T09:22:17;5.80;;;0.73;;
26080;SDS011;13991;51.174;4.438;2023-02-26T09:24:42;8.77;;;1.13;;
26080;SDS011;13991;51.174;4.438;2023-02-26T09:27:08;8.50;;;0.80;;
26080;SDS011;13991;51.174;4.438;2023-02-26T09:29:33;3.40;;;0.70;;
26080;SDS011;13991;51.174;4.438;2023-02-26T09:31:59;6.07;;;1.03;;
26080;SDS011;13991;51.174;4.438;2023-02-26T09:34:25;6.07;;;0.93;;
26080;SDS011;13991;51.174;4.438;2023-02-26T09:36:51;6.33;;;1.27;;
26080;SDS011;13991;51.174;4.438;2023-02-26T09:39:17;4.90;;;1.33;;
26080;SDS011;13991;51.174;4.438;2023-02-26T09:41:50;3.00;;;0.70;;
26080;SDS011;13991;51.174;4.438;2023-02-26T09:44:32;4.47;;;0.63;;
26080;SDS011;13991;51.174;4.438;2023-02-26T09:50:00;4.13;;;0.90;;
26080;SDS011;13991;51.174;4.438;2023-02-26T09:52:34;4.50;;;0.83;;
26080;SDS011;13991;51.174;4.438;2023-02-26T09:55:04;9.37;;;0.70;;
26080;SDS011;13991;51.174;4.438;2023-02-26T09:57:35;5.80;;;0.80;;
26080;SDS011;13991;51.174;4.438;2023-02-26T10:00:51;17.97;;;1.10;;
26080;SDS011;13991;51.174;4.438;2023-02-26T10:03:02;1.63;;;0.60;;
26080;SDS011;13991;51.174;4.438;2023-02-26T10:08:16;5.73;;;0.80;;
26080;SDS011;13991;51.174;4.438;2023-02-26T10:10:53;5.97;;;0.97;;
26080;SDS011;13991;51.174;4.438;2023-02-26T10:13:40;7.13;;;0.93;;
26080;SDS011;13991;51.174;4.438;2023-02-26T10:16:10;6.30;;;0.97;;
26080;SDS011;13991;51.174;4.438;2023-02-26T10:18:48;4.40;;;0.90;;
26080;SDS011;13991;51.174;4.438;2023-02-26T10:21:51;8.07;;;0.90;;
26080;SDS011;13991;51.174;4.438;2023-02-26T10:24:46;3.40;;;0.70;;
26080;SDS011;13991;51.174;4.438;2023-02-26T10:27:15;4.17;;;0.50;;
26080;SDS011;13991;51.174;4.438;2023-02-26T10:29:59;6.57;;;0.80;;
26080;SDS011;13991;51.174;4.438;2023-02-26T10:32:33;6.53;;;0.97;;
26080;SDS011;13991;51.174;4.438;2023-02-26T10:35:17;4.17;;;0.57;;
26080;SDS011;13991;51.174;4.438;2023-02-26T10:43:37;12.93;;;0.70;;
26080;SDS011;13991;51.174;4.438;2023-02-26T10:52:24;2.73;;;0.60;;
26080;SDS011;13991;51.174;4.438;2023-02-26T10:57:43;3.57;;;0.60;;
26080;SDS011;13991;51.174;4.438;2023-02-26T11:00:25;17.90;;;0.90;;
26080;SDS011;13991;51.174;4.438;2023-02-26T11:02:51;4.00;;;0.57;;
26080;SDS011;13991;51.174;4.438;2023-02-26T11:05:28;3.83;;;0.83;;
26080;SDS011;13991;51.174;4.438;2023-02-26T11:07:56;4.23;;;0.53;;
26080;SDS011;13991;51.174;4.438;2023-02-26T11:13:09;6.57;;;0.60;;
26080;SDS011;13991;51.174;4.438;2023-02-26T11:15:34;0.97;;;0.50;;
26080;SDS011;13991;51.174;4.438;2023-02-26T11:18:00;2.23;;;0.43;;
26080;SDS011;13991;51.174;4.438;2023-02-26T11:20:37;6.10;;;0.70;;
26080;SDS011;13991;51.174;4.438;2023-02-26T11:23:06;5.70;;;0.50;;
26080;SDS011;13991;51.174;4.438;2023-02-26T11:25:37;5.87;;;0.80;;
26080;SDS011;13991;51.174;4.438;2023-02-26T11:28:18;2.07;;;0.50;;
26080;SDS011;13991;51.174;4.438;2023-02-26T11:30:47;5.93;;;1.03;;
26080;SDS011;13991;51.174;4.438;2023-02-26T11:33:28;2.13;;;0.50;;
26080;SDS011;13991;51.174;4.438;2023-02-26T11:36:05;2.63;;;0.50;;
26080;SDS011;13991;51.174;4.438;2023-02-26T11:38:38;7.50;;;1.17;;
26080;SDS011;13991;51.174;4.438;2023-02-26T11:41:05;3.53;;;0.80;;
26080;SDS011;13991;51.174;4.438;2023-02-26T11:43:36;4.00;;;0.93;;
26080;SDS011;13991;51.174;4.438;2023-02-26T11:46:07;3.97;;;0.87;;
26080;SDS011;13991;51.174;4.438;2023-02-26T11:48:38;3.87;;;0.70;;
26080;SDS011;13991;51.174;4.438;2023-02-26T11:51:05;2.70;;;0.70;;
26080;SDS011;13991;51.174;4.438;2023-02-26T11:53:37;5.73;;;0.87;;
26080;SDS011;13991;51.174;4.438;2023-02-26T11:56:11;4.17;;;0.90;;
26080;SDS011;13991;51.174;4.438;2023-02-26T11:58:40;1.93;;;0.67;;
26080;SDS011;13991;51.174;4.438;2023-02-26T12:01:09;7.07;;;0.93;;
26080;SDS011;13991;51.174;4.438;2023-02-26T12:03:37;2.00;;;0.50;;
26080;SDS011;13991;51.174;4.438;2023-02-26T12:06:07;6.47;;;0.60;;
26080;SDS011;13991;51.174;4.438;2023-02-26T12:08:42;3.87;;;0.70;;
26080;SDS011;13991;51.174;4.438;2023-02-26T12:25:17;3.13;;;0.47;;
26080;SDS011;13991;51.174;4.438;2023-02-26T12:36:15;0.87;;;0.47;;
26080;SDS011;13991;51.174;4.438;2023-02-26T12:47:59;1.13;;;0.40;;
26080;SDS011;13991;51.174;4.438;2023-02-26T12:50:44;3.20;;;0.70;;
26080;SDS011;13991;51.174;4.438;2023-02-26T12:53:48;4.57;;;0.70;;
26080;SDS011;13991;51.174;4.438;2023-02-26T12:59:30;3.00;;;0.63;;
26080;SDS011;13991;51.174;4.438;2023-02-26T13:10:21;5.20;;;1.03;;
26080;SDS011;13991;51.174;4.438;2023-02-26T13:21:18;3.53;;;0.80;;
26080;SDS011;13991;51.174;4.438;2023-02-26T13:23:56;4.30;;;0.90;;
26080;SDS011;13991;51.174;4.438;2023-02-26T13:26:46;5.87;;;0.70;;
26080;SDS011;13991;51.174;4.438;2023-02-26T13:29:15;0.53;;;0.37;;
26080;SDS011;13991;51.174;4.438;2023-02-26T13:32:06;3.67;;;0.50;;
26080;SDS011;13991;51.174;4.438;2023-02-26T13:37:22;4.50;;;0.57;;
26080;SDS011;13991;51.174;4.438;2023-02-26T13:53:35;4.27;;;0.60;;
26080;SDS011;13991;51.174;4.438;2023-02-26T14:01:48;2.07;;;0.73;;
26080;SDS011;13991;51.174;4.438;2023-02-26T14:09:35;2.53;;;0.80;;
26080;SDS011;13991;51.174;4.438;2023-02-26T14:12:23;3.03;;;0.90;;
26080;SDS011;13991;51.174;4.438;2023-02-26T14:20:07;3.53;;;0.97;;
26080;SDS011;13991;51.174;4.438;2023-02-26T14:22:45;2.60;;;0.63;;
26080;SDS011;13991;51.174;4.438;2023-02-26T14:25:29;6.23;;;0.60;;
26080;SDS011;13991;51.174;4.438;2023-02-26T14:31:03;3.07;;;0.60;;
26080;SDS011;13991;51.174;4.438;2023-02-26T14:33:42;8.43;;;1.13;;
26080;SDS011;13991;51.174;4.438;2023-02-26T14:36:20;6.07;;;1.00;;
26080;SDS011;13991;51.174;4.438;2023-02-26T14:38:58;3.90;;;0.57;;
26080;SDS011;13991;51.174;4.438;2023-02-26T14:44:40;2.10;;;0.60;;
26080;SDS011;13991;51.174;4.438;2023-02-26T14:46:51;5.50;;;0.90;;
26080;SDS011;13991;51.174;4.438;2023-02-26T14:49:24;3.57;;;0.50;;
26080;SDS011;13991;51.174;4.438;2023-02-26T15:00:11;2.80;;;0.60;;
26080;SDS011;13991;51.174;4.438;2023-02-26T15:25:31;3.73;;;0.90;;
26080;SDS011;13991;51.174;4.438;2023-02-26T15:28:04;2.93;;;0.80;;
26080;SDS011;13991;51.174;4.438;2023-02-26T15:30:32;4.63;;;1.00;;
26080;SDS011;13991;51.174;4.438;2023-02-26T15:32:59;5.17;;;1.00;;
26080;SDS011;13991;51.174;4.438;2023-02-26T15:35:28;0.83;;;0.47;;
26080;SDS011;13991;51.174;4.438;2023-02-26T15:37:56;1.80;;;0.40;;
26080;SDS011;13991;51.174;4.438;2023-02-26T15:40:25;3.67;;;0.80;;
26080;SDS011;13991;51.174;4.438;2023-02-26T15:42:53;2.50;;;0.50;;
26080;SDS011;13991;51.174;4.438;2023-02-26T15:45:23;7.13;;;0.63;;
26080;SDS011;13991;51.174;4.438;2023-02-26T15:47:56;3.50;;;0.60;;
26080;SDS011;13991;51.174;4.438;2023-02-26T15:50:27;3.53;;;0.47;;
26080;SDS011;13991;51.174;4.438;2023-02-26T15:52:57;4.33;;;0.60;;
26080;SDS011;13991;51.174;4.438;2023-02-26T15:55:27;5.87;;;1.07;;
26080;SDS011;13991;51.174;4.438;2023-02-26T15:58:00;6.67;;;2.67;;
26080;SDS011;13991;51.174;4.438;2023-02-26T16:00:26;11.90;;;4.97;;
26080;SDS011;13991;51.174;4.438;2023-02-26T16:02:57;1.37;;;0.67;;
26080;SDS011;13991;51.174;4.438;2023-02-26T16:05:26;1.70;;;0.77;;
26080;SDS011;13991;51.174;4.438;2023-02-26T16:07:53;4.37;;;0.80;;
26080;SDS011;13991;51.174;4.438;2023-02-26T16:13:05;2.80;;;0.50;;
26080;SDS011;13991;51.174;4.438;2023-02-26T16:15:36;3.97;;;0.80;;
26080;SDS011;13991;51.174;4.438;2023-02-26T16:18:04;3.70;;;0.70;;
26080;SDS011;13991;51.174;4.438;2023-02-26T16:20:37;4.13;;;0.83;;
26080;SDS011;13991;51.174;4.438;2023-02-26T16:23:10;2.53;;;0.80;;
26080;SDS011;13991;51.174;4.438;2023-02-26T16:28:27;4.07;;;0.60;;
26080;SDS011;13991;51.174;4.438;2023-02-26T16:31:13;9.30;;;1.30;;
26080;SDS011;13991;51.174;4.438;2023-02-26T16:33:58;4.33;;;0.77;;
26080;SDS011;13991;51.174;4.438;2023-02-26T16:36:44;1.83;;;0.60;;
26080;SDS011;13991;51.174;4.438;2023-02-26T16:39:18;5.77;;;0.80;;
26080;SDS011;13991;51.174;4.438;2023-02-26T16:41:47;8.03;;;1.33;;
26080;SDS011;13991;51.174;4.438;2023-02-26T16:46:56;2.37;;;0.73;;
26080;SDS011;13991;51.174;4.438;2023-02-26T16:49:33;2.57;;;0.80;;
26080;SDS011;13991;51.174;4.438;2023-02-26T16:52:01;6.67;;;1.07;;
26080;SDS011;13991;51.174;4.438;2023-02-26T16:54:36;3.13;;;0.60;;
26080;SDS011;13991;51.174;4.438;2023-02-26T16:59:51;1.00;;;0.50;;
26080;SDS011;13991;51.174;4.438;2023-02-26T17:02:22;2.93;;;0.67;;
26080;SDS011;13991;51.174;4.438;2023-02-26T17:04:56;1.90;;;0.90;;
26080;SDS011;13991;51.174;4.438;2023-02-26T17:07:32;1.30;;;0.60;;
26080;SDS011;13991;51.174;4.438;2023-02-26T17:10:15;4.97;;;0.77;;
26080;SDS011;13991;51.174;4.438;2023-02-26T17:12:47;4.47;;;1.00;;
26080;SDS011;13991;51.174;4.438;2023-02-26T17:15:19;4.27;;;0.90;;
26080;SDS011;13991;51.174;4.438;2023-02-26T17:17:54;3.83;;;0.93;;
26080;SDS011;13991;51.174;4.438;2023-02-26T17:20:23;1.50;;;0.70;;
26080;SDS011;13991;51.174;4.438;2023-02-26T17:22:50;7.67;;;0.97;;
26080;SDS011;13991;51.174;4.438;2023-02-26T17:25:17;3.63;;;0.83;;
26080;SDS011;13991;51.174;4.438;2023-02-26T17:27:45;4.47;;;1.00;;
26080;SDS011;13991;51.174;4.438;2023-02-26T17:30:12;2.03;;;0.90;;
26080;SDS011;13991;51.174;4.438;2023-02-26T17:32:40;6.17;;;1.10;;
26080;SDS011;13991;51.174;4.438;2023-02-26T17:35:06;2.73;;;0.83;;
26080;SDS011;13991;51.174;4.438;2023-02-26T17:37:33;9.73;;;1.20;;
26080;SDS011;13991;51.174;4.438;2023-02-26T17:40:00;3.70;;;1.07;;
26080;SDS011;13991;51.174;4.438;2023-02-26T17:42:26;3.33;;;1.10;;
26080;SDS011;13991;51.174;4.438;2023-02-26T17:44:52;10.97;;;1.20;;
26080;SDS011;13991;51.174;4.438;2023-02-26T17:47:21;6.77;;;0.93;;
26080;SDS011;13991;51.174;4.438;2023-02-26T17:49:49;1.87;;;1.00;;
26080;SDS011;13991;51.174;4.438;2023-02-26T17:52:14;7.00;;;1.90;;
26080;SDS011;13991;51.174;4.438;2023-02-26T17:54:40;9.53;;;1.13;;
26080;SDS011;13991;51.174;4.438;2023-02-26T17:57:08;10.40;;;1.70;;
26080;SDS011;13991;51.174;4.438;2023-02-26T17:59:40;5.23;;;1.17;;
26080;SDS011;13991;51.174;4.438;2023-02-26T18:02:24;7.33;;;1.10;;
26080;SDS011;13991;51.174;4.438;2023-02-26T18:04:51;6.33;;;1.50;;
26080;SDS011;13991;51.174;4.438;2023-02-26T18:07:17;7.87;;;1.87;;
26080;SDS011;13991;51.174;4.438;2023-02-26T18:09:44;9.73;;;1.40;;
26080;SDS011;13991;51.174;4.438;2023-02-26T18:12:12;4.67;;;0.87;;
26080;SDS011;13991;51.174;4.438;2023-02-26T18:14:40;6.30;;;0.87;;
26080;SDS011;13991;51.174;4.438;2023-02-26T18:17:06;1.80;;;0.83;;
26080;SDS011;13991;51.174;4.438;2023-02-26T18:19:35;3.27;;;1.07;;
26080;SDS011;13991;51.174;4.438;2023-02-26T18:22:01;3.20;;;0.93;;
26080;SDS011;13991;51.174;4.438;2023-02-26T18:24:26;3.73;;;1.03;;